Cassville, WV (26527)

5:48 AM EDT on September 02, 2014 (GMT -0400)
Brooks green roof | Change Station
CLOSE
Current Station
Personal Weather Station
Location: Morgantown, WV
Elevation: 873 ft
Nearby Weather Stations

Elev 873 ft 39.64 °N, 79.96 °W | Updated 5 minutes ago

Partly Cloudy
Partly Cloudy
72.3 °F
Feels Like 70 °F
N
0.0
Wind Variable Wind from SSE
Gusts 0.0 mph

Today
High -- | Low -- °F
--% Chance of Precip.
Yesterday
High -- | Low -- °F
Precip. -- in
6:49 AM 7:49 PM
Waxing Crescent, 50% visible
Pressure 29.99 in
Visibility 10.0 miles
Clouds Few 3300 ft
Few 4300 ft
Heat Index 70 °F
Dew Point 69 °F
Humidity 88%
Rainfall 0.05 in
Snow Depth Not available.
UV 0 out of 12
Pollen 7.60 out of 12
Air Quality Not available.
Flu Activity Not available.
METAR KMGW 020853Z AUTO 20003KT 10SM FEW033 FEW043 23/19 A3002 RMK AO2 SLP153 T02330194 56002 TSNO

More Conditions Fewer Conditions

Pressure 29.99 in
Visibility 10.0 miles
Clouds Few 3300 ft
Few 4300 ft
Heat Index 70 °F
Dew Point 69 °F
Humidity 88%
Rainfall 0.05 in
Snow Depth Not available.
UV 0 out of 12
Pollen 7.60 out of 12
Air Quality Not available.
Flu Activity Not available.
METAR KMGW 020853Z AUTO 20003KT 10SM FEW033 FEW043 23/19 A3002 RMK AO2 SLP153 T02330194 56002 TSNO

More Conditions Fewer Conditions

10-Day Weather Forecast

Almanac

Astronomy

Sep. 02, 2014 Rise Set
Actual Time 6:49 AM EDT 7:49 PM EDT
Civil Twilight 6:21 AM EDT 8:17 PM EDT
Nautical Twilight 5:48 AM EDT 8:50 PM EDT
Astronomical Twilight 5:14 AM EDT 9:24 PM EDT
Moon 2:30 PM EDT No Moon Set
Length of Visible Light 13h 55m
Length of Day
13h 00m
Tomorrow will be 2m 30s shorter.
Waxing Crescent, 50% of the Moon is Illuminated
Today
Waxing Crescent
Sep 2
First Quarter
Sep 8
Full
Sep 15
Last Quarter
Sep 24
New

Today's Extremes

State Highs State Lows

Community

WunderPhotos

Upload Photos

1,749,587 photos uploaded!

WunderBlogs® & News

Nearby

Snow Depth

Station Depth Elevation
No new snow has been reported.

Earthquake Activity

City Distance Mag. Time & Date
No recent earthquake activity has been reported nearby.
Minimum magnitude displayed is 2.5.

Coastal Water Temperatures

Place Temperature
No Stations Reporting

Nearby Weather Stations